Time;durP1;ratioP1;P1;durP2;ratioP2;P2;SDS_P1;SDS_P2;PMS_P1;PMS_P2;Temp;Humidity;BMP_temperature;BMP_pressure;BME280_temperature;BME280_humidity;BME280_pressure;Samples;Min_cycle;Max_cycle;Signal;HPM_P1;HPM_P2
2020/12/11 00:00:06;;;;;;;24.52;13.60;;;1.00;99.70;;;;;;5015284;28;20036;-74
2020/12/11 00:02:34;;;;;;;25.15;13.73;;;1.00;99.60;;;;;;5025338;28;20037;-76
2020/12/11 00:05:04;;;;;;;23.65;13.30;;;1.00;99.70;;;;;;5024911;28;20042;-75
2020/12/11 00:07:37;;;;;;;21.92;13.00;;;1.00;99.80;;;;;;5025206;28;20057;-74
2020/12/11 00:10:11;;;;;;;22.30;13.25;;;0.90;99.50;;;;;;5019408;28;20117;-75
2020/12/11 00:12:38;;;;;;;22.42;12.55;;;1.00;99.80;;;;;;5021878;28;20434;-74
2020/12/11 00:15:08;;;;;;;24.13;13.38;;;1.00;99.60;;;;;;5021020;28;20092;-75
2020/12/11 00:17:34;;;;;;;19.93;12.03;;;1.00;99.50;;;;;;5027053;28;20044;-76
2020/12/11 00:20:00;;;;;;;21.67;12.43;;;0.90;99.50;;;;;;5021207;28;20030;-74
2020/12/11 00:22:26;;;;;;;18.30;11.88;;;0.90;99.80;;;;;;5027415;28;20042;-75
2020/12/11 00:24:52;;;;;;;20.40;12.70;;;0.80;99.90;;;;;;5022468;28;20057;-76
2020/12/11 00:27:19;;;;;;;18.70;11.63;;;0.90;99.90;;;;;;5024605;28;20033;-74
2020/12/11 00:29:45;;;;;;;23.42;12.45;;;0.90;99.90;;;;;;5025244;28;20038;-74
2020/12/11 00:32:11;;;;;;;20.30;12.00;;;0.90;99.90;;;;;;5029773;28;20048;-74
2020/12/11 00:34:37;;;;;;;24.33;13.02;;;1.00;99.90;;;;;;5029244;28;20042;-74
2020/12/11 00:37:06;;;;;;;23.23;13.13;;;1.00;99.80;;;;;;5011414;28;20061;-74
2020/12/11 00:39:33;;;;;;;21.90;13.15;;;1.00;99.70;;;;;;5027068;28;20117;-75
2020/12/11 00:41:59;;;;;;;22.67;12.43;;;1.10;99.70;;;;;;5026237;28;20044;-74
2020/12/11 00:44:25;;;;;;;23.58;13.10;;;1.10;99.70;;;;;;5019564;28;20045;-74
2020/12/11 00:46:51;;;;;;;23.38;12.93;;;1.10;99.30;;;;;;5021375;28;20397;-74
2020/12/11 00:49:17;;;;;;;25.17;12.90;;;1.00;99.70;;;;;;5023590;28;20046;-74
2020/12/11 00:51:43;;;;;;;23.88;13.32;;;1.00;99.80;;;;;;5023142;28;20451;-74
2020/12/11 00:54:08;;;;;;;21.55;12.23;;;1.10;99.70;;;;;;5017789;28;20057;-74
2020/12/11 00:56:34;;;;;;;20.65;12.43;;;1.10;99.60;;;;;;5023966;28;20037;-74
2020/12/11 00:59:00;;;;;;;24.40;13.43;;;1.10;99.60;;;;;;5017353;28;20077;-74
2020/12/11 01:01:26;;;;;;;23.25;13.07;;;1.10;99.30;;;;;;5016884;28;20454;-74
2020/12/11 01:03:52;;;;;;;21.92;12.73;;;1.10;99.40;;;;;;5026507;28;20387;-74
2020/12/11 01:06:17;;;;;;;25.08;13.68;;;1.10;99.40;;;;;;5026851;28;20037;-74
2020/12/11 01:08:43;;;;;;;26.50;14.23;;;1.10;99.30;;;;;;5012578;28;20530;-74
2020/12/11 01:11:08;;;;;;;23.90;14.20;;;1.10;99.30;;;;;;5016622;28;20105;-76
2020/12/11 01:13:34;;;;;;;24.58;13.95;;;1.10;99.40;;;;;;5021445;28;20873;-75
2020/12/11 01:16:00;;;;;;;26.88;13.90;;;1.10;99.50;;;;;;5026890;28;20042;-75
2020/12/11 01:18:26;;;;;;;26.08;13.70;;;1.10;99.50;;;;;;5018683;28;20568;-74
2020/12/11 01:20:52;;;;;;;23.13;13.65;;;1.10;99.70;;;;;;5024981;28;20053;-74
2020/12/11 01:23:17;;;;;;;23.38;13.23;;;1.10;99.60;;;;;;5024821;28;20509;-75
2020/12/11 01:25:43;;;;;;;24.50;13.00;;;1.00;99.60;;;;;;5019434;28;20049;-75
2020/12/11 01:28:09;;;;;;;24.80;14.10;;;1.00;99.90;;;;;;5029893;28;20045;-75
2020/12/11 01:30:36;;;;;;;23.20;13.02;;;1.00;99.90;;;;;;5029965;28;20136;-74
2020/12/11 01:33:02;;;;;;;22.67;13.25;;;1.10;99.90;;;;;;5034555;28;20503;-75
2020/12/11 01:35:29;;;;;;;19.55;12.02;;;1.10;99.70;;;;;;5017698;28;20037;-75
2020/12/11 01:37:55;;;;;;;22.83;12.60;;;1.10;99.70;;;;;;5018888;28;20038;-74
2020/12/11 01:40:24;;;;;;;21.55;12.48;;;1.10;99.60;;;;;;5020435;28;20041;-75
2020/12/11 01:42:49;;;;;;;22.33;12.32;;;1.20;99.40;;;;;;5008464;28;20046;-74
2020/12/11 01:45:15;;;;;;;27.27;13.13;;;1.20;99.70;;;;;;5022363;28;20120;-74
2020/12/11 01:47:41;;;;;;;21.73;12.82;;;1.20;99.30;;;;;;5018656;28;20537;-75
2020/12/11 01:50:18;;;;;;;23.20;11.98;;;1.10;99.60;;;;;;5014500;28;20586;-74
2020/12/11 01:52:46;;;;;;;22.10;12.48;;;1.10;99.70;;;;;;5021807;28;20032;-74
2020/12/11 01:55:11;;;;;;;23.67;12.48;;;1.20;99.70;;;;;;5019492;28;20529;-75
2020/12/11 01:57:59;;;;;;;23.67;12.50;;;1.20;99.80;;;;;;5020100;28;20067;-75
2020/12/11 02:00:25;;;;;;;21.42;12.40;;;1.10;99.70;;;;;;5016143;28;20410;-74
2020/12/11 02:03:08;;;;;;;22.45;12.40;;;1.20;99.70;;;;;;5015489;28;20050;-74
2020/12/11 02:05:34;;;;;;;20.10;12.65;;;1.20;99.70;;;;;;5029271;28;20110;-74
2020/12/11 02:08:00;;;;;;;23.95;13.13;;;1.20;99.50;;;;;;5029904;28;20068;-74
2020/12/11 02:10:26;;;;;;;21.13;12.40;;;1.20;99.60;;;;;;5018927;28;20091;-75
2020/12/11 02:12:52;;;;;;;22.38;12.68;;;1.20;99.70;;;;;;5015921;28;20040;-74
2020/12/11 02:15:18;;;;;;;20.80;11.52;;;1.30;99.70;;;;;;5018679;28;20407;-75
2020/12/11 02:17:43;;;;;;;21.52;12.30;;;1.30;99.70;;;;;;5020504;28;20041;-75
2020/12/11 02:20:10;;;;;;;22.05;13.07;;;1.30;99.40;;;;;;5018635;28;20046;-74
2020/12/11 02:22:36;;;;;;;19.83;12.25;;;1.30;99.40;;;;;;5034242;28;20037;-74
2020/12/11 02:25:03;;;;;;;19.17;11.68;;;1.30;99.60;;;;;;5016834;28;20549;-75
2020/12/11 02:27:29;;;;;;;19.70;12.32;;;1.30;99.70;;;;;;5021754;28;20398;-74
2020/12/11 02:29:54;;;;;;;21.73;12.52;;;1.30;99.80;;;;;;5014849;28;20121;-75
2020/12/11 02:32:21;;;;;;;21.10;12.02;;;1.30;99.60;;;;;;5002703;28;20519;-76
2020/12/11 02:34:47;;;;;;;23.42;12.93;;;1.40;99.60;;;;;;5013310;28;20038;-75
2020/12/11 02:37:13;;;;;;;19.83;12.25;;;1.40;99.40;;;;;;5015297;28;20034;-74
2020/12/11 02:39:40;;;;;;;22.70;12.98;;;1.30;99.50;;;;;;5025928;28;20072;-75
2020/12/11 02:42:07;;;;;;;20.42;12.20;;;1.20;99.80;;;;;;5016155;28;20076;-75
2020/12/11 02:44:34;;;;;;;20.58;12.15;;;1.30;99.70;;;;;;5016568;28;20038;-74
2020/12/11 02:47:00;;;;;;;19.92;12.57;;;1.40;99.80;;;;;;5020050;28;20034;-75
2020/12/11 02:49:27;;;;;;;19.75;11.73;;;1.40;99.70;;;;;;5021296;28;20042;-75
2020/12/11 02:51:54;;;;;;;18.85;11.88;;;1.50;99.50;;;;;;5011350;28;20117;-75
2020/12/11 02:54:20;;;;;;;21.20;11.68;;;1.50;99.40;;;;;;5017089;28;20128;-75
2020/12/11 02:56:46;;;;;;;19.17;11.77;;;1.50;99.20;;;;;;5010693;28;20124;-74
2020/12/11 02:59:12;;;;;;;20.08;12.75;;;1.50;99.50;;;;;;5005852;28;20046;-75
2020/12/11 03:01:37;;;;;;;21.50;12.38;;;1.50;99.30;;;;;;5017938;28;20397;-75
2020/12/11 03:04:03;;;;;;;20.67;11.82;;;1.60;99.50;;;;;;5013981;28;20030;-75
2020/12/11 03:06:32;;;;;;;19.67;11.82;;;1.60;99.50;;;;;;5018470;28;20049;-75
2020/12/11 03:08:59;;;;;;;19.15;11.68;;;1.70;99.20;;;;;;5020600;28;20077;-75
2020/12/11 03:11:25;;;;;;;16.73;10.65;;;1.70;99.00;;;;;;5021429;28;20029;-75
2020/12/11 03:13:52;;;;;;;17.30;11.23;;;1.70;98.80;;;;;;5030935;28;20076;-75
2020/12/11 03:16:18;;;;;;;20.33;12.40;;;1.70;98.80;;;;;;5016485;28;20028;-74
2020/12/11 03:18:44;;;;;;;19.80;11.88;;;1.80;98.90;;;;;;5014631;28;20042;-75
2020/12/11 03:21:10;;;;;;;19.70;12.32;;;1.80;99.00;;;;;;5016943;28;20046;-76
2020/12/11 03:23:37;;;;;;;19.15;12.25;;;1.80;98.80;;;;;;5022433;28;20112;-74
2020/12/11 03:26:04;;;;;;;18.80;10.80;;;1.90;98.70;;;;;;5017098;28;20037;-74
2020/12/11 03:28:31;;;;;;;21.52;12.27;;;1.90;98.50;;;;;;5023341;28;20480;-75
2020/12/11 03:30:57;;;;;;;22.65;12.77;;;1.90;98.70;;;;;;5016403;28;20052;-75
2020/12/11 03:33:22;;;;;;;22.67;12.85;;;2.00;98.70;;;;;;5014100;28;20490;-75
2020/12/11 03:35:48;;;;;;;22.58;12.20;;;2.00;98.60;;;;;;5012298;28;20050;-74
2020/12/11 03:38:14;;;;;;;22.83;12.77;;;2.10;98.50;;;;;;5015482;28;20117;-75
2020/12/11 03:40:40;;;;;;;18.98;12.13;;;2.10;98.50;;;;;;5013291;28;20099;-75
2020/12/11 03:43:06;;;;;;;22.42;12.50;;;2.00;98.60;;;;;;5014284;28;20073;-75
2020/12/11 03:45:32;;;;;;;20.48;11.98;;;2.10;98.70;;;;;;5010089;28;20064;-75
2020/12/11 03:47:57;;;;;;;20.33;11.88;;;2.10;98.40;;;;;;5020032;28;20026;-76
2020/12/11 03:50:23;;;;;;;20.35;11.88;;;2.10;98.30;;;;;;5024395;28;20044;-76
2020/12/11 03:52:48;;;;;;;17.80;11.10;;;2.10;98.30;;;;;;5016275;28;20060;-76
2020/12/11 03:55:14;;;;;;;18.50;11.52;;;2.10;98.10;;;;;;5020256;28;20509;-75
2020/12/11 03:57:40;;;;;;;17.17;11.05;;;2.20;97.80;;;;;;5019883;28;20571;-75
2020/12/11 04:00:06;;;;;;;20.17;11.15;;;2.10;98.20;;;;;;5020101;28;20132;-75
2020/12/11 04:02:34;;;;;;;18.42;10.35;;;2.10;97.80;;;;;;5013246;28;20034;-75
2020/12/11 04:05:02;;;;;;;16.30;10.85;;;2.00;98.20;;;;;;5022085;28;20037;-75
2020/12/11 04:07:28;;;;;;;18.17;10.75;;;2.00;98.10;;;;;;5017007;28;20448;-74
2020/12/11 04:09:54;;;;;;;19.55;10.50;;;2.00;98.30;;;;;;5019965;28;20411;-76
2020/12/11 04:12:20;;;;;;;16.27;10.32;;;2.10;98.30;;;;;;5028708;28;20029;-76
2020/12/11 04:14:46;;;;;;;19.08;10.90;;;2.10;98.10;;;;;;5027268;28;20462;-74
2020/12/11 04:17:12;;;;;;;18.40;11.00;;;2.10;98.30;;;;;;5024307;28;20462;-74
2020/12/11 04:19:37;;;;;;;19.33;12.07;;;2.20;98.30;;;;;;5016853;28;20045;-74
2020/12/11 04:22:03;;;;;;;19.65;12.15;;;2.20;98.40;;;;;;5014393;28;20034;-74
2020/12/11 04:24:35;;;;;;;19.90;11.85;;;2.20;98.50;;;;;;5022979;28;20159;-75
2020/12/11 04:27:00;;;;;;;19.77;11.25;;;2.30;98.60;;;;;;5020986;28;20026;-75
2020/12/11 04:29:26;;;;;;;18.45;11.10;;;2.20;98.60;;;;;;5012697;28;20427;-75
2020/12/11 04:31:56;;;;;;;18.98;10.98;;;2.30;98.40;;;;;;5015154;28;20057;-75
2020/12/11 04:34:22;;;;;;;20.02;11.02;;;2.30;98.20;;;;;;5021105;28;20038;-76
2020/12/11 04:36:54;;;;;;;20.35;11.52;;;2.40;98.10;;;;;;5019253;28;20041;-73
2020/12/11 04:39:20;;;;;;;19.83;11.07;;;2.40;98.10;;;;;;5021569;28;20429;-75
2020/12/11 04:41:46;;;;;;;22.15;12.07;;;2.40;98.10;;;;;;5017646;28;20080;-75
2020/12/11 04:44:12;;;;;;;21.30;11.18;;;2.40;98.20;;;;;;5018333;28;20542;-74
2020/12/11 04:46:39;;;;;;;21.10;12.30;;;2.40;98.40;;;;;;5020664;28;20088;-74
2020/12/11 04:49:06;;;;;;;20.23;11.52;;;2.40;98.70;;;;;;5020206;28;20042;-74
2020/12/11 04:51:32;;;;;;;22.40;13.10;;;2.50;98.60;;;;;;5015395;28;20132;-75
2020/12/11 04:54:00;;;;;;;19.83;11.27;;;2.50;98.90;;;;;;5021002;28;20518;-74
2020/12/11 04:56:26;;;;;;;17.83;11.18;;;2.50;98.50;;;;;;5018983;28;20037;-76
2020/12/11 04:58:54;;;;;;;17.75;10.30;;;2.50;98.60;;;;;;5024975;28;20045;-75
2020/12/11 05:01:28;;;;;;;18.45;11.30;;;2.40;98.90;;;;;;5021841;28;20042;-74
2020/12/11 05:03:55;;;;;;;17.75;11.25;;;2.40;99.30;;;;;;5022476;28;20095;-75
2020/12/11 05:06:20;;;;;;;19.55;11.32;;;2.50;99.40;;;;;;5028115;28;20032;-75
2020/12/11 05:08:46;;;;;;;21.05;11.80;;;2.40;99.50;;;;;;5021695;28;20032;-75
2020/12/11 05:11:28;;;;;;;18.83;11.40;;;2.50;99.90;;;;;;5031412;28;20064;-75
2020/12/11 05:13:54;;;;;;;20.48;11.82;;;2.50;99.80;;;;;;5021687;28;20064;-75
2020/12/11 05:16:21;;;;;;;19.83;11.32;;;2.40;99.90;;;;;;5008348;28;20523;-75
2020/12/11 05:19:00;;;;;;;17.65;10.93;;;2.40;99.90;;;;;;5020215;28;20111;-75
2020/12/11 05:21:26;;;;;;;18.05;11.23;;;2.40;99.90;;;;;;5015901;28;20045;-74
2020/12/11 05:24:04;;;;;;;15.75;9.30;;;2.50;99.90;;;;;;5018505;28;20042;-74
2020/12/11 05:26:32;;;;;;;16.45;10.13;;;2.50;99.90;;;;;;5018227;28;20046;-75
2020/12/11 05:28:59;;;;;;;15.05;9.68;;;2.50;99.90;;;;;;5023135;28;20120;-75
2020/12/11 05:31:25;;;;;;;16.42;9.73;;;2.60;99.90;;;;;;5017628;28;20065;-75
2020/12/11 05:34:14;;;;;;;15.80;9.32;;;2.60;99.90;;;;;;5022987;28;20151;-74
2020/12/11 05:36:42;;;;;;;15.68;9.55;;;2.70;99.90;;;;;;5015601;28;20080;-75
2020/12/11 05:39:08;;;;;;;16.15;9.52;;;2.70;99.90;;;;;;5019134;28;20034;-74
2020/12/11 05:41:35;;;;;;;17.25;9.75;;;2.70;99.90;;;;;;5017367;28;20041;-75
2020/12/11 05:44:01;;;;;;;17.50;10.45;;;2.80;99.90;;;;;;5023822;28;20449;-75
2020/12/11 05:46:31;;;;;;;16.75;9.13;;;2.80;99.90;;;;;;5013732;28;20435;-76
2020/12/11 05:49:00;;;;;;;16.63;8.95;;;2.80;99.90;;;;;;5024058;28;20049;-75
2020/12/11 05:51:38;;;;;;;14.95;9.00;;;2.90;99.90;;;;;;5016062;28;20612;-76
2020/12/11 05:54:05;;;;;;;13.90;8.07;;;2.90;99.90;;;;;;5009911;28;20127;-75
2020/12/11 05:56:32;;;;;;;14.50;8.88;;;2.90;99.90;;;;;;5019538;28;20420;-75
2020/12/11 05:58:59;;;;;;;16.85;10.05;;;2.90;99.90;;;;;;5014952;28;20452;-75
2020/12/11 06:01:27;;;;;;;14.15;9.30;;;2.90;99.90;;;;;;5009703;28;20042;-76
2020/12/11 06:03:55;;;;;;;14.73;9.05;;;2.90;99.90;;;;;;5015477;28;20068;-76
2020/12/11 06:06:24;;;;;;;14.98;9.25;;;3.00;99.90;;;;;;5010773;28;20037;-75
2020/12/11 06:08:52;;;;;;;15.25;9.00;;;3.00;99.90;;;;;;5013558;28;20128;-75
2020/12/11 06:11:22;;;;;;;14.40;9.18;;;3.00;99.90;;;;;;5019038;28;20026;-75
2020/12/11 06:13:56;;;;;;;14.63;8.50;;;3.00;99.90;;;;;;5022283;28;20056;-74
2020/12/11 06:16:24;;;;;;;15.32;8.65;;;3.10;99.90;;;;;;5014507;28;20072;-75
2020/12/11 06:19:00;;;;;;;15.07;8.95;;;3.10;99.90;;;;;;5013061;28;20109;-74
2020/12/11 06:21:27;;;;;;;17.63;10.02;;;3.10;99.90;;;;;;5017097;28;20468;-76
2020/12/11 06:23:53;;;;;;;15.73;9.32;;;3.20;99.90;;;;;;5015785;28;20037;-75
2020/12/11 06:26:19;;;;;;;16.67;9.95;;;3.20;99.90;;;;;;5017437;28;20041;-75
2020/12/11 06:28:49;;;;;;;15.10;9.93;;;3.20;99.60;;;;;;5019362;28;20037;-75
2020/12/11 06:31:20;;;;;;;14.17;9.10;;;3.10;99.90;;;;;;5012879;28;20527;-75
2020/12/11 06:33:48;;;;;;;16.65;9.90;;;3.10;99.90;;;;;;5023642;28;20121;-74
2020/12/11 06:36:14;;;;;;;14.52;9.27;;;3.10;99.90;;;;;;5017990;28;20029;-75
2020/12/11 06:38:47;;;;;;;17.80;10.38;;;3.00;99.90;;;;;;5019249;28;20404;-75
2020/12/11 06:41:34;;;;;;;17.23;10.15;;;3.00;99.90;;;;;;5014790;28;20160;-74
2020/12/11 06:44:14;;;;;;;13.25;9.18;;;3.10;99.90;;;;;;5015494;28;20038;-74
2020/12/11 06:46:40;;;;;;;16.13;10.05;;;3.00;99.90;;;;;;5019066;28;20487;-74
2020/12/11 06:49:08;;;;;;;16.85;10.30;;;3.00;99.90;;;;;;5013033;28;20173;-74
2020/12/11 06:51:46;;;;;;;19.83;11.00;;;3.00;99.90;;;;;;5013351;28;20424;-73
2020/12/11 06:54:32;;;;;;;18.42;10.65;;;3.00;99.90;;;;;;5012753;28;20034;-73
2020/12/11 06:57:00;;;;;;;16.75;9.90;;;2.90;99.90;;;;;;5011608;28;20044;-74
2020/12/11 06:59:25;;;;;;;17.95;10.55;;;2.80;99.90;;;;;;5013093;28;20030;-74
2020/12/11 07:02:15;;;;;;;19.33;10.35;;;2.80;99.90;;;;;;5013108;28;20419;-75
2020/12/11 07:04:45;;;;;;;16.88;10.15;;;2.80;99.90;;;;;;5007905;28;20104;-74
2020/12/11 07:07:12;;;;;;;20.23;11.18;;;2.90;99.90;;;;;;5013146;28;20034;-74
2020/12/11 07:09:48;;;;;;;18.90;10.88;;;2.80;99.90;;;;;;5013097;28;20470;-74
2020/12/11 07:12:15;;;;;;;18.52;9.95;;;2.90;99.90;;;;;;5018824;28;20018;-75
2020/12/11 07:14:41;;;;;;;17.92;10.82;;;2.90;99.90;;;;;;5011078;28;20038;-74
2020/12/11 07:17:07;;;;;;;16.38;10.07;;;3.00;99.90;;;;;;5009023;28;20042;-73
2020/12/11 07:19:36;;;;;;;18.42;11.18;;;2.90;99.90;;;;;;5010653;28;20455;-76
2020/12/11 07:22:03;;;;;;;21.95;10.75;;;2.90;99.90;;;;;;5014790;28;20037;-75
2020/12/11 07:24:31;;;;;;;16.65;9.85;;;3.00;99.90;;;;;;5015431;28;20053;-74
2020/12/11 07:27:04;;;;;;;19.48;11.70;;;3.00;99.90;;;;;;5014549;28;20392;-74
2020/12/11 07:29:30;;;;;;;18.42;11.60;;;3.00;99.90;;;;;;5002994;28;20017;-74
2020/12/11 07:31:56;;;;;;;21.20;12.25;;;3.00;99.90;;;;;;5012178;28;20497;-73
2020/12/11 07:34:24;;;;;;;21.95;12.05;;;2.90;99.90;;;;;;5012504;28;20033;-74
2020/12/11 07:36:55;;;;;;;18.58;11.65;;;2.90;99.90;;;;;;5011405;28;20026;-74
2020/12/11 07:39:22;;;;;;;18.40;10.95;;;2.90;99.90;;;;;;5015784;28;20033;-73
2020/12/11 07:41:49;;;;;;;21.15;11.15;;;2.90;99.90;;;;;;5013239;28;20045;-74
2020/12/11 07:44:28;;;;;;;21.20;10.95;;;2.90;99.90;;;;;;5018879;28;20033;-74
2020/12/11 07:46:57;;;;;;;19.38;10.98;;;2.90;99.90;;;;;;5009242;28;20140;-74
2020/12/11 07:49:46;;;;;;;19.52;10.85;;;2.90;99.90;;;;;;5017152;28;20048;-75
2020/12/11 07:52:21;;;;;;;21.45;11.45;;;2.90;99.90;;;;;;5024656;28;20534;-74
2020/12/11 07:54:47;;;;;;;20.02;11.75;;;2.90;99.90;;;;;;5024098;28;20112;-76
2020/12/11 07:57:16;;;;;;;21.98;12.27;;;2.90;99.90;;;;;;5022907;28;20049;-74
2020/12/11 08:00:03;;;;;;;21.23;12.02;;;2.90;99.90;;;;;;5025172;28;20486;-74
2020/12/11 08:02:30;;;;;;;20.73;12.10;;;2.90;99.90;;;;;;5025916;28;20046;-74
2020/12/11 08:04:59;;;;;;;20.52;11.15;;;2.90;99.90;;;;;;5024870;28;20414;-74
2020/12/11 08:07:28;;;;;;;22.23;13.05;;;2.90;99.90;;;;;;5019163;28;20117;-75
2020/12/11 08:10:05;;;;;;;21.17;13.05;;;2.90;99.90;;;;;;5019550;28;20507;-73
2020/12/11 08:12:31;;;;;;;22.98;12.65;;;;;;;;;;5018349;28;20034;-74
2020/12/11 08:14:57;;;;;;;18.88;12.15;;;3.00;99.90;;;;;;5020546;28;20038;-75
2020/12/11 08:17:23;;;;;;;22.63;13.60;;;2.90;99.90;;;;;;5020815;28;20092;-73
2020/12/11 08:20:00;;;;;;;19.85;12.10;;;2.90;99.90;;;;;;5017373;28;20141;-75
2020/12/11 08:22:36;;;;;;;21.45;12.07;;;3.00;99.90;;;;;;5024275;28;20049;-74
2020/12/11 08:25:22;;;;;;;21.80;11.70;;;3.00;99.90;;;;;;5020767;28;20033;-76
2020/12/11 08:27:48;;;;;;;21.17;11.82;;;3.00;99.90;;;;;;5014798;28;20025;-74
2020/12/11 08:30:18;;;;;;;18.80;11.77;;;3.10;99.90;;;;;;5020835;28;20124;-74
2020/12/11 08:32:45;;;;;;;18.80;10.98;;;3.10;99.90;;;;;;5019775;28;20291;-73
2020/12/11 08:35:19;;;;;;;19.75;10.93;;;3.10;99.90;;;;;;5015324;28;20077;-73
2020/12/11 08:37:55;;;;;;;20.75;12.70;;;3.20;99.90;;;;;;5022777;28;20116;-73
2020/12/11 08:40:22;;;;;;;22.40;11.25;;;3.20;99.90;;;;;;5025473;28;20057;-74
2020/12/11 08:46:18;;;;;;;22.60;12.15;;;;;;;;;;5020224;28;20047;-74
2020/12/11 08:51:39;;;;;;;22.58;10.57;;;;;;;;;;5016337;28;20896;-75
2020/12/11 08:54:08;;;;;;;21.10;11.18;;;;;;;;;;5011461;28;20095;-74
2020/12/11 08:56:34;;;;;;;16.48;9.93;;;;;;;;;;5011317;28;20033;-75
2020/12/11 08:59:01;;;;;;;19.80;10.85;;;;;;;;;;5014345;28;20038;-74
2020/12/11 09:01:27;;;;;;;19.75;10.23;;;3.70;99.90;;;;;;5017206;28;20058;-74
2020/12/11 09:03:57;;;;;;;18.30;10.88;;;3.60;99.90;;;;;;5017504;28;20044;-74
2020/12/11 09:06:23;;;;;;;19.90;11.57;;;3.60;99.90;;;;;;5021294;28;20033;-73
2020/12/11 09:08:48;;;;;;;21.98;11.63;;;3.60;99.90;;;;;;5019589;28;20509;-73
2020/12/11 09:11:14;;;;;;;23.15;11.95;;;3.60;99.90;;;;;;5016010;28;20063;-74
2020/12/11 09:13:41;;;;;;;19.55;11.77;;;3.70;99.90;;;;;;5012671;28;20042;-75
2020/12/11 09:16:06;;;;;;;19.63;11.75;;;3.70;99.90;;;;;;5019881;28;20034;-74
2020/12/11 09:18:32;;;;;;;16.77;10.38;;;3.80;99.90;;;;;;5012087;28;20034;-73
2020/12/11 09:20:58;;;;;;;17.90;11.05;;;3.90;99.90;;;;;;5022131;28;20045;-75
2020/12/11 09:23:23;;;;;;;19.75;11.77;;;3.90;99.90;;;;;;5007097;28;20978;-75
2020/12/11 09:25:51;;;;;;;20.70;12.13;;;3.80;99.90;;;;;;5018318;28;20057;-75
2020/12/11 09:28:18;;;;;;;18.17;10.63;;;3.70;99.90;;;;;;5021041;28;20034;-74
2020/12/11 09:30:46;;;;;;;20.45;12.07;;;3.80;99.90;;;;;;5011425;28;20049;-74
2020/12/11 09:33:21;;;;;;;18.77;11.50;;;3.90;99.90;;;;;;5016710;28;20096;-75
2020/12/11 09:35:46;;;;;;;19.65;11.60;;;3.90;99.90;;;;;;5008325;28;20072;-75
2020/12/11 09:38:13;;;;;;;18.95;12.20;;;3.90;99.90;;;;;;5016523;28;20072;-75
2020/12/11 09:40:47;;;;;;;19.15;11.10;;;4.00;99.90;;;;;;5016260;28;20061;-75
2020/12/11 09:48:58;;;;;;;16.52;9.73;;;;;;;;;;5023344;28;20029;-75
2020/12/11 09:56:50;;;;;;;15.38;9.30;;;;;;;;;;5014851;28;20084;-74
2020/12/11 09:59:25;;;;;;;16.88;10.15;;;4.50;99.90;;;;;;5017366;28;20029;-75
2020/12/11 10:02:10;;;;;;;17.35;10.15;;;4.60;99.90;;;;;;5012023;28;20048;-74
2020/12/11 10:04:36;;;;;;;16.60;10.27;;;4.50;99.90;;;;;;5017062;28;20022;-74
2020/12/11 10:07:02;;;;;;;16.38;10.13;;;4.50;99.90;;;;;;5021327;28;20479;-74
2020/12/11 10:09:28;;;;;;;14.80;8.98;;;4.50;99.90;;;;;;5012914;28;20080;-74
2020/12/11 10:11:55;;;;;;;15.07;9.32;;;4.60;99.90;;;;;;5009702;28;20041;-74
2020/12/11 10:16:50;;;;;;;15.18;9.48;;;4.50;99.90;;;;;;5015724;28;20037;-74
2020/12/11 10:19:16;;;;;;;15.90;10.10;;;4.50;99.90;;;;;;5013459;28;20420;-74
2020/12/11 10:21:44;;;;;;;18.90;10.05;;;4.50;99.90;;;;;;5011625;28;20029;-74
2020/12/11 10:24:10;;;;;;;16.83;10.52;;;4.40;99.90;;;;;;5012104;28;20045;-74
2020/12/11 10:26:39;;;;;;;14.68;9.40;;;4.30;99.90;;;;;;5013452;28;20535;-75
2020/12/11 10:29:04;;;;;;;15.85;9.35;;;4.40;99.90;;;;;;5019296;28;20384;-74
2020/12/11 10:31:31;;;;;;;15.13;9.05;;;4.30;99.90;;;;;;5011399;28;20044;-74
2020/12/11 10:33:57;;;;;;;16.33;9.73;;;4.40;99.90;;;;;;5016473;28;20149;-74
2020/12/11 10:36:33;;;;;;;16.40;9.73;;;4.40;99.90;;;;;;5013519;28;20511;-74
2020/12/11 10:38:58;;;;;;;15.02;9.43;;;4.50;99.90;;;;;;5013084;28;20042;-74
2020/12/11 10:41:26;;;;;;;17.17;9.93;;;4.50;99.90;;;;;;5015743;28;20095;-74
2020/12/11 10:43:52;;;;;;;15.63;8.98;;;4.60;99.90;;;;;;5014132;28;20124;-75
2020/12/11 10:46:19;;;;;;;15.95;9.65;;;4.60;99.90;;;;;;5010568;28;20352;-73
2020/12/11 10:48:45;;;;;;;18.20;10.05;;;4.70;99.90;;;;;;5015284;28;20042;-73
2020/12/11 10:51:12;;;;;;;14.20;9.35;;;4.80;99.90;;;;;;5016296;28;20109;-75
2020/12/11 10:53:40;;;;;;;15.95;8.98;;;4.90;99.90;;;;;;4999534;28;20048;-73
2020/12/11 10:56:07;;;;;;;13.30;8.57;;;5.00;99.80;;;;;;5013133;28;20116;-73
2020/12/11 10:58:33;;;;;;;15.55;9.63;;;5.00;99.70;;;;;;5016166;28;20033;-74
2020/12/11 11:01:01;;;;;;;12.77;7.97;;;5.10;99.90;;;;;;5014035;28;20136;-74
2020/12/11 11:03:28;;;;;;;14.55;9.20;;;5.00;99.50;;;;;;5013214;28;20038;-74
2020/12/11 11:05:55;;;;;;;12.85;8.10;;;5.00;99.40;;;;;;5006353;28;20069;-73
2020/12/11 11:08:23;;;;;;;13.05;8.15;;;5.00;99.70;;;;;;5017625;28;20044;-73
2020/12/11 11:10:49;;;;;;;11.55;7.82;;;5.00;99.50;;;;;;5028291;28;20033;-73
2020/12/11 11:15:48;;;;;;;12.25;7.90;;;5.10;99.40;;;;;;5021157;28;20030;-73
2020/12/11 11:18:35;;;;;;;14.13;8.93;;;5.80;99.70;;;;;;5015202;28;20048;-73
2020/12/11 11:23:46;;;;;;;13.88;8.82;;;4.90;99.60;;;;;;5015482;28;20392;-75
2020/12/11 11:26:25;;;;;;;14.80;8.68;;;4.90;99.70;;;;;;5022599;28;20088;-73
2020/12/11 11:28:51;;;;;;;13.90;8.57;;;4.90;99.90;;;;;;5016662;28;20018;-75
2020/12/11 11:31:17;;;;;;;13.63;8.80;;;4.90;99.70;;;;;;5017109;28;20125;-73
2020/12/11 11:33:43;;;;;;;16.13;9.00;;;4.90;99.80;;;;;;5016099;28;20038;-74
2020/12/11 11:36:09;;;;;;;13.77;8.25;;;4.80;99.90;;;;;;5015298;28;20089;-74
2020/12/11 11:38:36;;;;;;;16.20;8.93;;;5.00;99.90;;;;;;5015380;28;20053;-72
2020/12/11 11:41:01;;;;;;;14.57;9.15;;;5.00;99.70;;;;;;5015380;28;20053;-75
2020/12/11 11:43:46;;;;;;;13.15;8.55;;;4.90;99.90;;;;;;5018099;28;20072;-75
2020/12/11 11:46:12;;;;;;;15.70;9.25;;;5.10;99.70;;;;;;5021159;28;20049;-73
2020/12/11 11:48:40;;;;;;;14.18;8.43;;;5.20;99.70;;;;;;5020424;28;20045;-73
2020/12/11 11:51:37;;;;;;;13.18;8.48;;;5.30;99.60;;;;;;5020623;28;20036;-75
2020/12/11 11:53:52;;;;;;;13.85;8.20;;;5.30;99.60;;;;;;5019513;28;20554;-73
2020/12/11 11:56:20;;;;;;;12.60;7.85;;;5.30;99.20;;;;;;5027738;28;20026;-73
2020/12/11 11:58:46;;;;;;;14.77;7.93;;;5.30;99.20;;;;;;5016512;28;20119;-73
2020/12/11 12:01:13;;;;;;;15.15;7.68;;;5.30;99.30;;;;;;5022733;28;20484;-74
2020/12/11 12:03:39;;;;;;;11.85;7.82;;;5.40;99.00;;;;;;5017005;28;20128;-74
2020/12/11 12:06:06;;;;;;;12.15;7.90;;;5.40;98.70;;;;;;5013732;28;20117;-73
2020/12/11 12:08:32;;;;;;;13.18;7.40;;;5.40;99.00;;;;;;5017635;28;20036;-74
2020/12/11 12:10:57;;;;;;;12.07;7.68;;;5.40;98.50;;;;;;5021636;28;20038;-73
2020/12/11 12:13:23;;;;;;;12.15;7.30;;;5.40;98.50;;;;;;5022439;28;20049;-73
2020/12/11 12:15:51;;;;;;;11.88;7.10;;;5.50;98.50;;;;;;5016693;28;20065;-73
2020/12/11 12:18:16;;;;;;;12.68;7.05;;;5.50;98.10;;;;;;5014096;28;20026;-73
2020/12/11 12:30:53;;;;;;;13.45;7.78;;;5.50;98.30;;;;;;5010205;28;20053;-74
2020/12/11 12:43:27;;;;;;;11.60;7.85;;;5.50;98.10;;;;;;5021315;28;20042;-74
2020/12/11 12:45:53;;;;;;;15.35;9.27;;;5.40;98.40;;;;;;5017136;28;20564;-74
2020/12/11 12:48:19;;;;;;;15.10;8.63;;;5.40;98.70;;;;;;5019134;28;20112;-74
2020/12/11 12:50:45;;;;;;;13.02;8.43;;;5.30;99.00;;;;;;5019164;28;20037;-73
2020/12/11 12:53:11;;;;;;;12.82;8.40;;;5.30;99.10;;;;;;5018121;28;20042;-74
2020/12/11 12:55:41;;;;;;;15.38;8.68;;;5.30;99.50;;;;;;5014734;28;20483;-74
2020/12/11 12:58:09;;;;;;;16.17;8.93;;;5.20;99.90;;;;;;5013688;28;20040;-74
2020/12/11 13:00:54;;;;;;;15.68;9.00;;;5.10;99.90;;;;;;5011681;28;20508;-74
2020/12/11 13:03:31;;;;;;;12.57;7.97;;;5.10;99.90;;;;;;5016922;28;20032;-74
2020/12/11 13:05:57;;;;;;;13.38;8.75;;;5.10;99.90;;;;;;5013543;28;20037;-75
2020/12/11 13:08:22;;;;;;;13.30;8.45;;;5.10;99.90;;;;;;5029154;28;20064;-74
2020/12/11 13:10:48;;;;;;;14.15;7.82;;;5.10;99.90;;;;;;5015217;28;20041;-75
2020/12/11 13:13:15;;;;;;;10.68;6.28;;;5.20;99.90;;;;;;5012481;28;20033;-74
2020/12/11 13:15:40;;;;;;;8.27;4.43;;;5.30;99.90;;;;;;5015619;28;20029;-75
2020/12/11 13:18:06;;;;;;;8.52;3.80;;;5.30;99.90;;;;;;5016719;28;20038;-74
2020/12/11 13:20:36;;;;;;;8.40;4.13;;;5.30;99.90;;;;;;5013931;28;20522;-74
2020/12/11 13:28:28;;;;;;;11.52;5.78;;;5.30;99.90;;;;;;5011955;28;20040;-74
2020/12/11 13:30:54;;;;;;;11.57;5.63;;;5.20;99.90;;;;;;5024716;28;20064;-74
2020/12/11 13:33:20;;;;;;;9.30;5.43;;;5.20;99.90;;;;;;5013410;28;20038;-74
2020/12/11 13:35:46;;;;;;;10.05;5.03;;;5.10;99.90;;;;;;5017211;28;20109;-73
2020/12/11 13:38:12;;;;;;;11.65;5.97;;;5.20;99.90;;;;;;5014189;28;20028;-74